createdAt,value
2024-05-09T00:00:30.806Z,0.00
2024-05-09T00:01:27.946Z,0.00
2024-05-09T00:02:25.870Z,0.00
2024-05-09T00:03:25.736Z,0.00
2024-05-09T00:04:25.713Z,0.00
2024-05-09T00:05:25.753Z,0.00
2024-05-09T00:06:25.658Z,0.00
2024-05-09T00:07:25.660Z,0.00
2024-05-09T00:08:25.718Z,0.00
2024-05-09T00:09:25.619Z,0.00
2024-05-09T00:10:33.461Z,0.00
2024-05-09T00:11:26.675Z,0.00
2024-05-09T00:12:25.811Z,0.00
2024-05-09T00:13:25.562Z,0.00
2024-05-09T00:14:25.694Z,0.00
2024-05-09T00:15:25.519Z,0.00
2024-05-09T00:16:25.488Z,0.00
2024-05-09T00:17:25.787Z,0.00
2024-05-09T00:18:25.534Z,0.00
2024-05-09T00:19:25.702Z,0.00
2024-05-09T00:20:33.228Z,0.00
2024-05-09T00:21:26.416Z,0.00
2024-05-09T00:22:25.407Z,0.00
2024-05-09T00:23:25.506Z,0.00
2024-05-09T00:24:25.363Z,0.00
2024-05-09T00:25:25.354Z,0.00
2024-05-09T00:26:25.365Z,0.00
2024-05-09T00:27:25.319Z,0.00
2024-05-09T00:28:25.311Z,0.00
2024-05-09T00:29:25.424Z,0.00
2024-05-09T00:30:33.220Z,0.00
2024-05-09T00:31:26.250Z,0.00
2024-05-09T00:32:25.462Z,0.00
2024-05-09T00:33:25.472Z,0.00
2024-05-09T00:34:25.286Z,0.00
2024-05-09T00:35:25.315Z,0.00
2024-05-09T00:36:25.158Z,0.00
2024-05-09T00:37:25.147Z,0.00
2024-05-09T00:38:25.210Z,0.00
2024-05-09T00:39:25.099Z,0.00
2024-05-09T00:40:35.110Z,0.00
2024-05-09T00:41:27.130Z,0.00
2024-05-09T00:42:25.071Z,0.00
2024-05-09T00:43:25.048Z,0.00
2024-05-09T00:44:25.155Z,0.00
2024-05-09T00:45:25.011Z,0.00
2024-05-09T00:46:24.995Z,0.00
2024-05-09T00:47:25.229Z,0.00
2024-05-09T00:48:25.055Z,0.00
2024-05-09T00:49:25.148Z,0.00
2024-05-09T00:50:33.801Z,0.00
2024-05-09T00:51:26.908Z,0.00
2024-05-09T00:52:51.340Z,0.00
2024-05-09T00:53:24.941Z,0.00
2024-05-09T00:54:24.876Z,0.00
2024-05-09T00:55:24.828Z,0.00
2024-05-09T00:56:24.900Z,0.00
2024-05-09T00:57:24.798Z,0.00
2024-05-09T00:58:24.785Z,0.00
2024-05-09T00:59:24.958Z,0.00
2024-05-09T01:00:31.594Z,0.00
2024-05-09T01:01:26.812Z,0.00
2024-05-09T01:02:24.833Z,0.00
2024-05-09T01:03:24.986Z,0.00
2024-05-09T01:04:24.855Z,0.00
2024-05-09T01:05:24.756Z,0.00
2024-05-09T01:06:24.651Z,0.00
2024-05-09T01:07:24.633Z,0.00
2024-05-09T01:08:24.932Z,0.00
2024-05-09T01:09:24.584Z,0.00
2024-05-09T01:10:32.206Z,0.00
2024-05-09T01:11:25.619Z,0.00
2024-05-09T01:12:24.725Z,0.00
2024-05-09T01:13:24.536Z,0.00
2024-05-09T01:14:24.637Z,0.00
2024-05-09T01:15:24.527Z,0.00
2024-05-09T01:16:24.481Z,0.00
2024-05-09T01:17:24.558Z,0.00
2024-05-09T01:18:24.558Z,0.00
2024-05-09T01:19:24.568Z,0.00
2024-05-09T01:20:32.141Z,0.00
2024-05-09T01:21:26.442Z,0.00
2024-05-09T01:22:24.372Z,0.00
2024-05-09T01:23:24.378Z,0.00
2024-05-09T01:24:24.334Z,0.00
2024-05-09T01:25:24.326Z,0.00
2024-05-09T01:26:24.406Z,0.00
2024-05-09T01:27:24.284Z,0.00
2024-05-09T01:28:24.272Z,0.00
2024-05-09T01:29:24.410Z,0.00
2024-05-09T01:30:31.723Z,0.00
2024-05-09T01:31:26.233Z,0.00
2024-05-09T01:32:24.300Z,0.00
2024-05-09T01:33:24.359Z,0.00
2024-05-09T01:34:24.184Z,0.00
2024-05-09T01:35:24.284Z,0.00
2024-05-09T01:36:24.263Z,0.00
2024-05-09T01:37:24.128Z,0.00
2024-05-09T01:38:24.146Z,0.00
2024-05-09T01:39:24.096Z,0.00
2024-05-09T01:40:33.455Z,0.00
2024-05-09T01:41:26.108Z,0.00
2024-05-09T01:42:24.045Z,0.00
2024-05-09T01:43:24.031Z,0.00
2024-05-09T01:44:24.163Z,0.00
2024-05-09T01:45:24.012Z,0.00
2024-05-09T01:46:23.972Z,0.00
2024-05-09T01:47:24.130Z,0.00
2024-05-09T01:48:24.182Z,0.00
2024-05-09T01:49:24.160Z,0.00
2024-05-09T01:50:35.755Z,0.00
2024-05-09T01:51:25.911Z,0.00
2024-05-09T01:52:23.913Z,0.00
2024-05-09T01:53:23.916Z,0.00
2024-05-09T01:54:23.849Z,0.00
2024-05-09T01:55:23.816Z,0.00
2024-05-09T01:56:23.867Z,0.00
2024-05-09T01:57:23.835Z,0.00
2024-05-09T01:58:23.786Z,0.00
2024-05-09T01:59:23.773Z,0.00
2024-05-09T02:00:33.757Z,0.00
2024-05-09T02:01:25.752Z,0.00
2024-05-09T02:02:23.818Z,0.00
2024-05-09T02:03:23.875Z,0.00
2024-05-09T02:04:23.892Z,0.00
2024-05-09T02:05:23.750Z,0.00
2024-05-09T02:06:23.642Z,0.00
2024-05-09T02:07:23.616Z,0.00
2024-05-09T02:08:23.707Z,0.00
2024-05-09T02:09:23.602Z,0.00
2024-05-09T02:10:30.323Z,0.00
2024-05-09T02:11:24.672Z,0.00
2024-05-09T02:12:23.656Z,0.00
2024-05-09T02:13:23.559Z,0.00
2024-05-09T02:14:23.628Z,0.00
2024-05-09T02:15:23.484Z,0.00
2024-05-09T02:16:23.489Z,0.00
2024-05-09T02:17:23.596Z,0.00
2024-05-09T02:18:23.705Z,0.00
2024-05-09T02:19:23.649Z,0.00
2024-05-09T02:20:30.692Z,0.00
2024-05-09T02:21:25.399Z,0.00
2024-05-09T02:22:23.375Z,0.00
2024-05-09T02:23:23.395Z,0.00
2024-05-09T02:24:23.349Z,0.00
2024-05-09T02:25:23.323Z,0.00
2024-05-09T02:26:23.449Z,0.00
2024-05-09T02:27:23.292Z,0.00
2024-05-09T02:28:23.289Z,0.00
2024-05-09T02:29:23.317Z,0.00
2024-05-09T02:30:30.718Z,0.00
2024-05-09T02:31:24.218Z,0.00
2024-05-09T02:32:23.304Z,0.00
2024-05-09T02:33:23.657Z,0.00
2024-05-09T02:34:23.486Z,0.00
2024-05-09T02:35:23.260Z,0.00
2024-05-09T02:36:23.144Z,0.00
2024-05-09T02:37:23.140Z,0.00
2024-05-09T02:38:23.177Z,0.00
2024-05-09T02:39:23.137Z,0.00
2024-05-09T02:40:32.985Z,0.00
2024-05-09T02:41:25.984Z,0.00
2024-05-09T02:42:23.098Z,0.00
2024-05-09T02:43:23.027Z,0.00
2024-05-09T02:44:23.102Z,0.00
2024-05-09T02:45:23.008Z,0.00
2024-05-09T02:46:22.987Z,0.00
2024-05-09T02:47:23.196Z,0.00
2024-05-09T02:48:23.111Z,0.00
2024-05-09T02:49:23.040Z,0.00
2024-05-09T02:50:29.087Z,0.00
2024-05-09T02:51:24.897Z,0.00
2024-05-09T02:52:22.877Z,0.00
2024-05-09T02:53:22.944Z,0.00
2024-05-09T02:54:22.836Z,0.00
2024-05-09T02:55:23.881Z,0.00
2024-05-09T02:56:22.899Z,0.00
2024-05-09T02:57:22.800Z,4.00
2024-05-09T02:58:22.764Z,4.00
2024-05-09T02:59:23.895Z,4.00
2024-05-09T03:00:26.712Z,0.00
2024-05-09T03:01:24.785Z,0.00
2024-05-09T03:02:22.809Z,4.00
2024-05-09T03:03:23.032Z,4.00
2024-05-09T03:04:22.705Z,4.00
2024-05-09T03:05:22.792Z,4.00
2024-05-09T03:06:22.680Z,4.00
2024-05-09T03:07:22.664Z,8.00
2024-05-09T03:08:22.729Z,8.00
2024-05-09T03:09:22.581Z,8.00
2024-05-09T03:10:28.290Z,12.00
2024-05-09T03:11:23.679Z,8.00
2024-05-09T03:12:22.670Z,12.00
2024-05-09T03:13:22.528Z,12.00
2024-05-09T03:14:22.597Z,16.00
2024-05-09T03:15:22.517Z,16.00
2024-05-09T03:16:22.484Z,20.00
2024-05-09T03:17:22.587Z,20.00
2024-05-09T03:18:22.640Z,24.00
2024-05-09T03:19:22.698Z,32.00
2024-05-09T03:20:27.374Z,36.00
2024-05-09T03:21:24.393Z,44.00
2024-05-09T03:22:22.398Z,48.00
2024-05-09T03:23:22.422Z,56.00
2024-05-09T03:24:22.366Z,64.00
2024-05-09T03:25:22.326Z,72.00
2024-05-09T03:26:22.406Z,80.00
2024-05-09T03:27:22.321Z,92.00
2024-05-09T03:28:22.259Z,104.00
2024-05-09T03:29:22.301Z,116.00
2024-05-09T03:30:30.673Z,132.00
2024-05-09T03:31:22.238Z,148.00
2024-05-09T03:32:22.338Z,168.00
2024-05-09T03:33:22.746Z,184.00
2024-05-09T03:34:22.219Z,204.00
2024-05-09T03:35:22.243Z,228.00
2024-05-09T03:36:22.143Z,252.00
2024-05-09T03:37:22.124Z,276.00
2024-05-09T03:38:22.198Z,300.00
2024-05-09T03:39:22.085Z,332.00
2024-05-09T03:40:26.391Z,360.00
2024-05-09T03:41:23.198Z,392.00
2024-05-09T03:42:22.041Z,428.00
2024-05-09T03:43:22.042Z,464.00
2024-05-09T03:44:22.054Z,504.00
2024-05-09T03:45:22.002Z,544.00
2024-05-09T03:46:21.971Z,592.00
2024-05-09T03:47:22.107Z,636.00
2024-05-09T03:48:22.174Z,680.00
2024-05-09T03:49:22.310Z,736.00
2024-05-09T03:50:29.849Z,784.00
2024-05-09T03:51:23.896Z,840.00
2024-05-09T03:52:21.880Z,960.00
2024-05-09T03:53:21.962Z,1160.00
2024-05-09T03:54:21.852Z,1260.00
2024-05-09T03:55:22.820Z,1224.00
2024-05-09T03:56:21.840Z,1176.00
2024-05-09T03:57:21.805Z,1232.00
2024-05-09T03:58:21.777Z,1284.00
2024-05-09T03:59:21.829Z,1360.00
2024-05-09T04:00:30.014Z,1432.00
2024-05-09T04:01:23.917Z,1512.00
2024-05-09T04:02:21.818Z,1684.00
2024-05-09T04:03:21.904Z,1764.00
2024-05-09T04:04:21.745Z,1740.00
2024-05-09T04:05:21.709Z,1828.00
2024-05-09T04:06:21.648Z,1904.00
2024-05-09T04:07:21.635Z,2084.00
2024-05-09T04:08:21.653Z,2184.00
2024-05-09T04:09:21.583Z,2188.00
2024-05-09T04:10:30.180Z,2240.00
2024-05-09T04:11:21.649Z,2284.00
2024-05-09T04:12:21.571Z,2368.00
2024-05-09T04:13:21.541Z,2456.00
2024-05-09T04:14:21.613Z,2548.00
2024-05-09T04:15:21.532Z,2816.00
2024-05-09T04:16:21.472Z,2888.00
2024-05-09T04:17:21.481Z,2860.00
2024-05-09T04:18:21.550Z,2936.00
2024-05-09T04:19:21.692Z,3016.00
2024-05-09T04:20:32.481Z,3272.00
2024-05-09T04:21:22.389Z,3360.00
2024-05-09T04:22:21.421Z,3360.00
2024-05-09T04:23:21.395Z,3464.00
2024-05-09T04:24:21.356Z,3764.00
2024-05-09T04:25:21.377Z,4592.00
2024-05-09T04:26:21.382Z,5184.00
2024-05-09T04:27:21.414Z,6996.00
2024-05-09T04:28:21.436Z,9212.00
2024-05-09T04:29:21.334Z,8532.00
2024-05-09T04:30:30.221Z,7376.00
2024-05-09T04:31:23.206Z,7668.00
2024-05-09T04:32:21.504Z,7112.00
2024-05-09T04:33:21.419Z,6164.00
2024-05-09T04:34:21.441Z,5560.00
2024-05-09T04:35:21.248Z,5256.00
2024-05-09T04:36:21.126Z,4692.00
2024-05-09T04:37:21.131Z,4908.00
2024-05-09T04:38:21.133Z,5096.00
2024-05-09T04:39:21.096Z,6008.00
2024-05-09T04:40:28.515Z,8056.00
2024-05-09T04:41:22.098Z,7344.00
2024-05-09T04:42:21.033Z,8500.00
2024-05-09T04:43:21.026Z,14080.00
2024-05-09T04:44:21.091Z,17248.00
2024-05-09T04:45:21.009Z,18784.00
2024-05-09T04:46:20.983Z,16800.00
2024-05-09T04:47:21.064Z,13056.00
2024-05-09T04:48:21.105Z,8964.00
2024-05-09T04:49:20.985Z,6444.00
2024-05-09T04:50:29.395Z,6012.00
2024-05-09T04:51:22.904Z,6832.00
2024-05-09T04:52:20.861Z,7656.00
2024-05-09T04:53:20.868Z,9580.00
2024-05-09T04:54:33.498Z,16320.00
2024-05-09T04:55:22.820Z,19360.00
2024-05-09T04:56:20.871Z,20672.00
2024-05-09T04:57:20.787Z,23264.00
2024-05-09T04:58:20.779Z,28512.00
2024-05-09T04:59:20.808Z,33728.00
2024-05-09T05:00:28.603Z,34784.00
2024-05-09T05:01:22.778Z,37344.00
2024-05-09T05:02:20.735Z,30080.00
2024-05-09T05:03:20.976Z,16064.00
2024-05-09T05:04:20.728Z,8328.00
2024-05-09T05:05:20.658Z,8328.00
2024-05-09T05:06:20.652Z,8500.00
2024-05-09T05:07:20.636Z,8740.00
2024-05-09T05:08:20.631Z,9128.00
2024-05-09T05:09:20.602Z,18080.00
2024-05-09T05:10:25.513Z,35776.00
2024-05-09T05:11:22.641Z,46944.00
2024-05-09T05:12:20.635Z,47584.00
2024-05-09T05:13:21.824Z,48608.00
2024-05-09T05:14:20.687Z,47584.00
2024-05-09T05:15:20.488Z,47680.00
2024-05-09T05:16:20.466Z,48704.00
2024-05-09T05:17:20.631Z,48800.00
2024-05-09T05:18:20.654Z,46432.00
2024-05-09T05:19:20.523Z,47616.00
2024-05-09T05:20:27.465Z,49088.00
2024-05-09T05:21:22.519Z,52960.00
2024-05-09T05:22:20.438Z,47232.00
2024-05-09T05:23:20.552Z,26624.00
2024-05-09T05:24:20.322Z,11960.00
2024-05-09T05:25:20.305Z,17408.00
2024-05-09T05:26:20.533Z,34688.00
2024-05-09T05:27:20.330Z,48768.00
2024-05-09T05:28:20.289Z,50336.00
2024-05-09T05:29:21.004Z,50432.00
2024-05-09T05:30:25.488Z,51776.00
2024-05-09T05:31:21.312Z,54112.00
2024-05-09T05:32:20.469Z,58144.00
2024-05-09T05:33:20.785Z,61568.00
2024-05-09T05:34:20.149Z,62592.00
2024-05-09T05:35:20.185Z,61248.00
2024-05-09T05:36:20.122Z,61408.00
2024-05-09T05:37:20.108Z,60960.00
2024-05-09T05:38:22.824Z,59456.00
2024-05-09T05:39:20.176Z,59648.00
2024-05-09T05:40:28.185Z,59776.00
2024-05-09T05:41:22.056Z,58848.00
2024-05-09T05:42:20.027Z,40640.00
2024-05-09T05:43:20.146Z,19328.00
2024-05-09T05:44:20.126Z,14536.00
2024-05-09T05:45:19.974Z,30848.00
2024-05-09T05:46:19.959Z,50848.00
2024-05-09T05:47:20.148Z,58208.00
2024-05-09T05:48:20.067Z,57728.00
2024-05-09T05:49:20.134Z,59936.00
2024-05-09T05:50:27.424Z,62624.00
2024-05-09T05:51:21.949Z,64768.00
2024-05-09T05:52:19.853Z,62624.00
2024-05-09T05:53:19.874Z,62240.00
2024-05-09T05:54:19.864Z,61984.00
2024-05-09T05:55:19.788Z,65600.00
2024-05-09T05:56:19.911Z,67904.00
2024-05-09T05:57:19.766Z,68512.00
2024-05-09T05:58:19.764Z,67488.00
2024-05-09T05:59:19.807Z,66528.00
2024-05-09T06:00:29.227Z,68096.00
2024-05-09T06:01:21.776Z,69408.00
2024-05-09T06:02:19.747Z,73056.00
2024-05-09T06:03:19.717Z,59584.00
2024-05-09T06:04:19.694Z,31840.00
2024-05-09T06:05:19.712Z,15564.00
2024-05-09T06:06:19.622Z,27744.00
2024-05-09T06:07:19.626Z,47776.00
2024-05-09T06:08:19.659Z,47328.00
2024-05-09T06:09:19.573Z,31392.00
2024-05-09T06:10:25.423Z,19648.00
2024-05-09T06:11:21.650Z,15516.00
2024-05-09T06:12:19.667Z,15480.00
2024-05-09T06:13:19.511Z,15560.00
2024-05-09T06:14:19.607Z,15704.00
2024-05-09T06:15:19.528Z,15892.00
2024-05-09T06:16:19.477Z,16264.00
2024-05-09T06:17:19.558Z,23168.00
2024-05-09T06:18:19.789Z,38464.00
2024-05-09T06:19:19.683Z,55680.00
2024-05-09T06:20:24.050Z,67776.00
2024-05-09T06:21:21.491Z,72256.00
2024-05-09T06:22:19.366Z,71808.00
2024-05-09T06:23:19.407Z,71264.00
2024-05-09T06:24:19.344Z,71456.00
2024-05-09T06:25:19.426Z,72384.00
2024-05-09T06:26:19.475Z,73216.00
2024-05-09T06:27:19.310Z,76128.00
2024-05-09T06:28:19.272Z,74816.00
2024-05-09T06:29:19.397Z,76096.00
2024-05-09T06:30:25.469Z,76576.00
2024-05-09T06:31:21.263Z,83520.00
2024-05-09T06:32:19.292Z,86336.00
2024-05-09T06:33:19.493Z,84832.00
2024-05-09T06:34:19.362Z,80448.00
2024-05-09T06:35:19.254Z,81184.00
2024-05-09T06:36:19.298Z,83552.00
2024-05-09T06:37:19.171Z,82240.00
2024-05-09T06:38:19.159Z,81632.00
2024-05-09T06:39:19.130Z,79872.00
2024-05-09T06:40:25.483Z,79712.00
2024-05-09T06:41:21.154Z,79776.00
2024-05-09T06:42:19.141Z,80928.00
2024-05-09T06:43:19.874Z,81600.00
2024-05-09T06:44:19.085Z,82272.00
2024-05-09T06:45:19.062Z,79904.00
2024-05-09T06:46:19.000Z,79744.00
2024-05-09T06:47:19.050Z,82016.00
2024-05-09T06:48:19.753Z,88512.00
2024-05-09T06:49:19.174Z,88448.00
2024-05-09T06:50:23.962Z,86560.00
2024-05-09T06:51:21.011Z,81472.00
2024-05-09T06:52:51.388Z,81536.00
2024-05-09T06:53:18.976Z,84512.00
2024-05-09T06:54:18.879Z,85056.00
2024-05-09T06:55:18.871Z,82656.00
2024-05-09T06:56:18.892Z,78464.00
2024-05-09T06:57:18.852Z,78176.00
2024-05-09T06:58:18.864Z,78496.00
2024-05-09T06:59:18.872Z,80352.00
2024-05-09T07:00:27.240Z,78560.00
2024-05-09T07:01:20.898Z,78208.00
2024-05-09T07:02:18.891Z,81632.00
2024-05-09T07:03:19.690Z,88160.00
2024-05-09T07:04:18.835Z,91072.00
2024-05-09T07:05:18.881Z,92608.00
2024-05-09T07:06:18.734Z,92992.00
2024-05-09T07:07:18.731Z,93504.00
2024-05-09T07:08:19.053Z,92960.00
2024-05-09T07:09:18.706Z,89632.00
2024-05-09T07:10:25.599Z,87680.00
2024-05-09T07:11:19.784Z,87904.00
2024-05-09T07:12:18.784Z,85664.00
2024-05-09T07:13:18.638Z,84320.00
2024-05-09T07:14:18.811Z,84256.00
2024-05-09T07:15:18.566Z,86720.00
2024-05-09T07:16:18.584Z,90592.00
2024-05-09T07:17:18.607Z,90720.00
2024-05-09T07:18:19.648Z,90432.00
2024-05-09T07:19:18.768Z,91072.00
2024-05-09T07:20:23.751Z,90368.00
2024-05-09T07:21:20.558Z,91968.00
2024-05-09T07:22:18.468Z,89152.00
2024-05-09T07:23:18.754Z,85568.00
2024-05-09T07:24:18.467Z,85696.00
2024-05-09T07:25:18.437Z,89120.00
2024-05-09T07:26:18.556Z,89728.00
2024-05-09T07:27:18.411Z,91264.00
2024-05-09T07:28:18.582Z,90496.00
2024-05-09T07:29:18.463Z,90560.00
2024-05-09T07:30:23.582Z,89664.00
2024-05-09T07:31:20.370Z,89984.00
2024-05-09T07:32:18.429Z,94368.00
2024-05-09T07:33:18.775Z,97184.00
2024-05-09T07:34:18.441Z,100064.00
2024-05-09T07:35:18.343Z,100672.00
2024-05-09T07:36:18.266Z,101184.00
2024-05-09T07:37:18.263Z,97984.00
2024-05-09T07:38:18.342Z,95680.00
2024-05-09T07:39:18.255Z,93888.00
2024-05-09T07:40:28.197Z,93856.00
2024-05-09T07:41:20.326Z,93152.00
2024-05-09T07:42:18.191Z,92256.00
2024-05-09T07:43:18.188Z,92096.00
2024-05-09T07:44:18.214Z,93664.00
2024-05-09T07:45:39.661Z,96064.00
2024-05-09T07:48:29.079Z,96288.00
2024-05-09T07:53:38.389Z,93600.00
2024-05-09T07:54:20.226Z,91520.00
2024-05-09T07:55:18.376Z,90528.00
2024-05-09T07:56:19.110Z,90560.00
2024-05-09T07:57:18.164Z,91744.00
2024-05-09T07:58:18.033Z,93952.00
2024-05-09T07:59:18.012Z,99616.00
2024-05-09T08:00:23.702Z,103264.00
2024-05-09T08:01:19.390Z,98912.00
2024-05-09T08:02:18.042Z,96096.00
2024-05-09T08:03:18.098Z,93344.00
2024-05-09T08:04:18.161Z,93792.00
2024-05-09T08:05:17.993Z,92064.00
2024-05-09T08:06:17.878Z,98688.00
2024-05-09T08:07:17.909Z,104704.00
2024-05-09T08:08:17.857Z,104512.00
2024-05-09T08:09:21.132Z,100960.00
2024-05-09T08:10:22.174Z,93664.00
2024-05-09T08:11:19.847Z,88960.00
2024-05-09T08:12:17.794Z,90624.00
2024-05-09T08:13:17.833Z,92352.00
2024-05-09T08:14:17.785Z,92576.00
2024-05-09T08:15:17.810Z,95040.00
2024-05-09T08:16:17.739Z,93408.00
2024-05-09T08:17:17.746Z,90176.00
2024-05-09T08:18:17.916Z,87392.00
2024-05-09T08:19:17.790Z,85472.00
2024-05-09T08:20:26.643Z,88064.00
2024-05-09T08:21:19.704Z,94848.00
2024-05-09T08:22:17.686Z,93312.00
2024-05-09T08:23:17.651Z,92608.00
2024-05-09T08:24:17.663Z,88768.00
2024-05-09T08:25:17.768Z,86976.00
2024-05-09T08:26:17.609Z,92000.00
2024-05-09T08:27:17.569Z,97408.00
2024-05-09T08:28:17.824Z,93920.00
2024-05-09T08:29:17.588Z,93568.00
2024-05-09T08:30:24.746Z,92032.00
2024-05-09T08:31:19.657Z,88832.00
2024-05-09T08:32:17.536Z,89568.00
2024-05-09T08:33:17.655Z,89440.00
2024-05-09T08:34:17.628Z,86656.00
2024-05-09T08:35:17.465Z,88768.00
2024-05-09T08:36:17.468Z,93504.00
2024-05-09T08:37:22.450Z,97536.00
2024-05-09T08:38:19.437Z,97728.00
2024-05-09T08:39:17.458Z,94720.00
2024-05-09T08:40:24.069Z,92576.00
2024-05-09T08:41:18.423Z,93440.00
2024-05-09T08:42:17.389Z,91232.00
2024-05-09T08:43:17.452Z,90848.00
2024-05-09T08:44:17.376Z,91040.00
2024-05-09T08:45:17.387Z,90112.00
2024-05-09T08:46:17.436Z,88448.00
2024-05-09T08:47:17.329Z,89952.00
2024-05-09T08:48:17.418Z,92864.00
2024-05-09T08:49:17.384Z,91744.00
2024-05-09T08:50:28.723Z,94112.00
2024-05-09T08:51:19.277Z,94848.00
2024-05-09T08:52:17.296Z,90720.00
2024-05-09T08:53:17.222Z,90720.00
2024-05-09T08:54:17.204Z,91104.00
2024-05-09T08:55:17.265Z,90496.00
2024-05-09T08:56:17.175Z,85184.00
2024-05-09T08:57:17.201Z,85024.00
2024-05-09T08:58:17.388Z,82720.00
2024-05-09T08:59:17.210Z,80416.00
2024-05-09T09:00:25.804Z,76608.00
2024-05-09T09:01:18.187Z,76448.00
2024-05-09T09:02:17.522Z,84768.00
2024-05-09T09:03:17.127Z,97568.00
2024-05-09T09:04:17.292Z,95552.00
2024-05-09T09:05:17.263Z,87776.00
2024-05-09T09:06:17.027Z,88384.00
2024-05-09T09:07:17.122Z,84608.00
2024-05-09T09:08:17.030Z,78272.00
2024-05-09T09:09:17.003Z,78688.00
2024-05-09T09:10:25.381Z,84512.00
2024-05-09T09:11:18.987Z,88800.00
2024-05-09T09:12:16.944Z,91392.00
2024-05-09T09:13:17.059Z,89952.00
2024-05-09T09:14:16.946Z,85280.00
2024-05-09T09:15:16.957Z,87968.00
2024-05-09T09:16:17.015Z,85952.00
2024-05-09T09:17:16.908Z,77696.00
2024-05-09T09:18:17.169Z,75744.00
2024-05-09T09:19:17.127Z,74784.00
2024-05-09T09:20:23.219Z,72128.00
2024-05-09T09:21:17.834Z,73088.00
2024-05-09T09:22:16.947Z,82944.00
2024-05-09T09:23:16.901Z,89504.00
2024-05-09T09:24:16.809Z,86400.00
2024-05-09T09:25:16.822Z,85632.00
2024-05-09T09:26:16.747Z,82048.00
2024-05-09T09:27:17.757Z,77728.00
2024-05-09T09:28:16.780Z,78400.00
2024-05-09T09:29:16.733Z,77888.00
2024-05-09T09:30:30.812Z,76160.00
2024-05-09T09:31:18.785Z,80256.00
2024-05-09T09:32:16.759Z,78560.00
2024-05-09T09:33:16.753Z,76192.00
2024-05-09T09:34:16.821Z,75552.00
2024-05-09T09:35:16.646Z,74528.00
2024-05-09T09:36:16.639Z,74496.00
2024-05-09T09:37:16.648Z,71424.00
2024-05-09T09:38:16.648Z,73344.00
2024-05-09T09:39:16.661Z,74912.00
2024-05-09T09:40:18.421Z,69984.00
2024-05-09T09:41:16.593Z,71360.00
2024-05-09T09:42:16.578Z,69984.00
2024-05-09T09:43:16.598Z,73664.00
2024-05-09T09:44:16.592Z,74240.00
2024-05-09T09:45:16.542Z,72480.00
2024-05-09T09:46:16.645Z,68096.00
2024-05-09T09:47:17.511Z,64480.00
2024-05-09T09:48:16.609Z,65344.00
2024-05-09T09:49:16.645Z,66368.00
2024-05-09T09:50:20.486Z,67648.00
2024-05-09T09:51:18.464Z,64544.00
2024-05-09T09:52:16.487Z,68608.00
2024-05-09T09:53:17.419Z,72000.00
2024-05-09T09:54:16.386Z,71200.00
2024-05-09T09:55:16.562Z,69504.00
2024-05-09T09:56:16.390Z,68288.00
2024-05-09T09:57:16.346Z,68416.00
2024-05-09T09:58:16.415Z,66656.00
2024-05-09T09:59:16.304Z,65184.00
2024-05-09T10:01:17.443Z,63776.00
2024-05-09T10:02:16.510Z,65536.00
2024-05-09T10:03:16.301Z,66176.00
2024-05-09T10:04:16.353Z,67200.00
2024-05-09T10:05:16.361Z,69696.00
2024-05-09T10:06:16.272Z,63968.00
2024-05-09T10:07:16.274Z,59488.00
2024-05-09T10:08:16.247Z,60160.00
2024-05-09T10:09:16.166Z,57792.00
2024-05-09T10:10:20.069Z,59328.00
2024-05-09T10:11:17.225Z,61120.00
2024-05-09T10:12:16.223Z,59296.00
2024-05-09T10:13:16.412Z,61056.00
2024-05-09T10:14:16.102Z,61984.00
2024-05-09T10:15:16.093Z,61504.00
2024-05-09T10:16:16.143Z,59808.00
2024-05-09T10:17:16.080Z,59872.00
2024-05-09T10:18:16.441Z,58048.00
2024-05-09T10:19:16.199Z,59712.00
2024-05-09T10:20:21.841Z,64896.00
2024-05-09T10:21:18.104Z,65408.00
2024-05-09T10:22:16.206Z,61056.00
2024-05-09T10:23:16.295Z,59136.00
2024-05-09T10:24:15.935Z,55712.00
2024-05-09T10:25:16.150Z,55936.00
2024-05-09T10:26:16.005Z,58496.00
2024-05-09T10:27:15.941Z,56672.00
2024-05-09T10:28:16.020Z,40416.00
2024-05-09T10:29:15.976Z,22336.00
2024-05-09T10:30:25.315Z,17664.00
2024-05-09T10:31:17.973Z,17312.00
2024-05-09T10:32:15.975Z,17088.00
2024-05-09T10:33:16.067Z,16992.00
2024-05-09T10:34:16.156Z,17024.00
2024-05-09T10:35:15.857Z,17024.00
2024-05-09T10:36:15.792Z,17088.00
2024-05-09T10:37:15.948Z,16992.00
2024-05-09T10:38:15.759Z,16928.00
2024-05-09T10:39:15.770Z,16864.00
2024-05-09T10:40:23.338Z,16768.00
2024-05-09T10:41:17.709Z,16832.00
2024-05-09T10:42:15.723Z,16832.00
2024-05-09T10:43:15.733Z,17056.00
2024-05-09T10:44:15.694Z,17216.00
2024-05-09T10:45:15.652Z,17568.00
2024-05-09T10:46:15.902Z,17600.00
2024-05-09T10:47:15.757Z,17248.00
2024-05-09T10:48:15.698Z,16352.00
2024-05-09T10:49:15.726Z,15948.00
2024-05-09T10:50:22.429Z,15920.00
2024-05-09T10:51:17.572Z,15780.00
2024-05-09T10:52:16.790Z,15576.00
2024-05-09T10:53:15.540Z,15308.00
2024-05-09T10:54:15.551Z,14992.00
2024-05-09T10:55:15.528Z,14736.00
2024-05-09T10:56:15.511Z,14524.00
2024-05-09T10:57:15.498Z,14364.00
2024-05-09T10:58:15.572Z,14180.00
2024-05-09T10:59:15.478Z,14148.00
2024-05-09T11:00:23.343Z,14140.00
2024-05-09T11:01:17.551Z,14080.00
2024-05-09T11:02:15.574Z,14136.00
2024-05-09T11:03:15.458Z,14332.00
2024-05-09T11:04:15.442Z,14328.00
2024-05-09T11:05:15.513Z,14208.00
2024-05-09T11:06:15.354Z,13972.00
2024-05-09T11:07:15.382Z,13736.00
2024-05-09T11:08:15.340Z,13476.00
2024-05-09T11:09:16.297Z,13144.00
2024-05-09T11:10:20.714Z,12852.00
2024-05-09T11:11:16.351Z,12664.00
2024-05-09T11:12:15.298Z,12588.00
2024-05-09T11:13:15.336Z,12520.00
2024-05-09T11:14:15.218Z,12212.00
2024-05-09T11:15:15.247Z,11912.00
2024-05-09T11:16:15.313Z,11680.00
2024-05-09T11:17:15.219Z,11488.00
2024-05-09T11:18:15.280Z,11332.00
2024-05-09T11:19:15.443Z,11264.00
2024-05-09T11:20:22.732Z,11192.00
2024-05-09T11:21:17.107Z,11100.00
2024-05-09T11:22:15.215Z,11032.00
2024-05-09T11:23:15.072Z,11044.00
2024-05-09T11:24:15.074Z,11088.00
2024-05-09T11:25:15.149Z,11052.00
2024-05-09T11:26:15.005Z,11052.00
2024-05-09T11:27:15.027Z,11104.00
2024-05-09T11:28:15.194Z,11332.00
2024-05-09T11:29:17.946Z,11480.00
2024-05-09T11:30:23.778Z,11500.00
2024-05-09T11:31:17.200Z,11440.00
2024-05-09T11:32:14.986Z,11320.00
2024-05-09T11:33:14.995Z,11172.00
2024-05-09T11:34:14.964Z,11060.00
2024-05-09T11:35:14.878Z,11236.00
2024-05-09T11:36:14.866Z,11368.00
2024-05-09T11:37:15.038Z,11268.00
2024-05-09T11:38:14.838Z,11240.00
2024-05-09T11:39:15.016Z,11180.00
2024-05-09T11:40:21.391Z,11236.00
2024-05-09T11:41:16.800Z,11060.00
2024-05-09T11:42:14.766Z,11044.00
2024-05-09T11:43:14.869Z,10276.00
2024-05-09T11:44:14.727Z,9832.00
2024-05-09T11:45:14.754Z,9752.00
2024-05-09T11:46:14.911Z,9284.00
2024-05-09T11:47:14.740Z,9000.00
2024-05-09T11:48:14.808Z,8556.00
2024-05-09T11:49:14.763Z,8328.00
2024-05-09T11:50:22.530Z,8228.00
2024-05-09T11:51:16.634Z,7984.00
2024-05-09T11:52:14.630Z,7780.00
2024-05-09T11:53:14.582Z,7820.00
2024-05-09T11:54:14.571Z,8648.00
2024-05-09T11:55:14.782Z,8620.00
2024-05-09T11:56:14.560Z,8536.00
2024-05-09T11:57:14.516Z,8536.00
2024-05-09T11:58:14.599Z,8592.00
2024-05-09T11:59:14.509Z,8724.00
2024-05-09T12:00:20.782Z,8984.00
2024-05-09T12:01:16.531Z,9352.00
2024-05-09T12:02:14.602Z,9564.00
2024-05-09T12:03:14.568Z,9684.00
2024-05-09T12:04:14.698Z,9816.00
2024-05-09T12:05:14.550Z,9876.00
2024-05-09T12:06:14.432Z,9796.00
2024-05-09T12:07:14.393Z,9704.00
2024-05-09T12:08:14.414Z,9576.00
2024-05-09T12:09:14.415Z,9284.00
2024-05-09T12:10:19.591Z,9112.00
2024-05-09T12:11:15.406Z,9104.00
2024-05-09T12:12:14.271Z,8956.00
2024-05-09T12:13:14.310Z,8708.00
2024-05-09T12:14:14.288Z,8452.00
2024-05-09T12:15:14.210Z,8360.00
2024-05-09T12:16:14.407Z,8484.00
2024-05-09T12:17:14.264Z,8220.00
2024-05-09T12:18:14.278Z,8312.00
2024-05-09T12:19:14.267Z,7980.00